Jack Guidry — WDF2422 — position and weather

sailwx.info

Track history (hours):
 
Tides and Currents Weather Stations Pressure Air Temp Water Temp Dewpoint Dewpoint Depression Visibility Wind Speed Wind Dir Waves Ship Positions

Jack Guidry

Owner: Enterprise Marine Services, LLC, San Antonio, TX. More information available from US FCC via Universal Licensing System and Coast Guard Vessel Documentation Center.

Last reported at 2016-Feb-10 05:33 UTC. Time now 2016-Feb-10 06:43 UTC.
Position N 29°56' W 093°02'.

Length 22 m; draft 2.5 m.

Type: Other ship. MMSI: 367003430.

Date/timePositionNaut miles runAvg speedWind from/ knotsBaromVisibWave heightAir tempDewpointWater temp
2016-Feb-10 05:33N 29°56' W 093°02'5 4.7
2016-Feb-10 04:33N 29°56' W 093°07'5 5.1
2016-Feb-10 03:34N 29°59' W 093°12'4 4.0
2016-Feb-10 02:33N 30°02' W 093°15'4 3.8
2016-Feb-10 01:34N 30°05' W 093°17'1 1.4
2016-Feb-10 00:34N 30°06' W 093°19'0 0.1
2016-Feb-09 23:33N 30°06' W 093°19'0 0.0
2016-Feb-09 22:33N 30°06' W 093°19'0 0.0
2016-Feb-09 21:33N 30°06' W 093°19'0 0.0
2016-Feb-09 20:33N 30°06' W 093°19'0 0.0
2016-Feb-09 19:33N 30°06' W 093°19'0 0.0
2016-Feb-09 18:34N 30°06' W 093°19'0 0.0
2016-Feb-09 17:34N 30°06' W 093°19'0 0.1
2016-Feb-09 16:33N 30°06' W 093°19'5 4.6
2016-Feb-09 15:33N 30°04' W 093°23'0 0.1
2016-Feb-09 14:33N 30°04' W 093°23'5 5.3
2016-Feb-09 13:33N 30°04' W 093°29'5 4.6
2016-Feb-09 12:33N 30°04' W 093°35'4 4.3
2016-Feb-09 11:33N 30°03' W 093°40'7 4.8
2016-Feb-09 10:05N 29°60' W 093°47'2 0.1
2016-Feb-08 15:05N 30°01' W 093°45'2 4.6
2016-Feb-08 14:33N 30°03' W 093°43'5 4.6
2016-Feb-08 13:33N 30°04' W 093°38'4 3.7
2016-Feb-08 12:34N 30°04' W 093°33'4 3.8
2016-Feb-08 11:33N 30°04' W 093°29'4 3.7
2016-Feb-08 10:33N 30°04' W 093°25'4 4.0
2016-Feb-08 09:33N 30°05' W 093°20'4 3.9
2016-Feb-08 08:34N 30°08' W 093°20'0 0.4
2016-Feb-08 07:33N 30°08' W 093°20'0 0.2
2016-Feb-08 06:34N 30°08' W 093°19'0 0.0
2016-Feb-08 05:34N 30°08' W 093°19'0 0.0
2016-Feb-08 04:33N 30°08' W 093°19'0 0.0
2016-Feb-08 03:33N 30°08' W 093°19'0 0.0
2016-Feb-08 02:33N 30°08' W 093°19'0 0.0
2016-Feb-08 01:33N 30°08' W 093°19'0 0.0
2016-Feb-08 00:34N 30°08' W 093°19'0 0.0
2016-Feb-07 23:33N 30°08' W 093°19'0 0.0
2016-Feb-07 22:33N 30°08' W 093°19'0 0.0
2016-Feb-07 21:33N 30°08' W 093°19'0 0.0
2016-Feb-07 20:33N 30°08' W 093°19'0 0.0
2016-Feb-07 19:33N 30°08' W 093°19'0 0.0
2016-Feb-07 18:34N 30°08' W 093°19'0 0.0
2016-Feb-07 17:33N 30°08' W 093°19'0 0.0
2016-Feb-07 16:34N 30°08' W 093°19'0 0.0
2016-Feb-07 15:33N 30°08' W 093°19'0 0.0
2016-Feb-07 14:34N 30°08' W 093°19'0 0.0
2016-Feb-07 13:33N 30°08' W 093°19'0 0.0
2016-Feb-07 12:33N 30°08' W 093°19'0 0.1
2016-Feb-07 11:34N 30°08' W 093°19'0 0.0
2016-Feb-07 10:33N 30°08' W 093°19'2 1.8
2016-Feb-07 09:33N 30°06' W 093°20'2 2.1
2016-Feb-07 08:33N 30°04' W 093°20'0 0.0
2016-Feb-07 07:34N 30°04' W 093°20'0 0.0
2016-Feb-07 06:34N 30°04' W 093°20'0 0.0
2016-Feb-07 05:33N 30°04' W 093°20'0 0.0
2016-Feb-07 04:33N 30°04' W 093°20'0 0.0
2016-Feb-07 03:34N 30°04' W 093°20'0 0.0
2016-Feb-07 02:07N 30°04' W 093°20'0 0.0
2016-Feb-07 01:34N 30°04' W 093°20'0 0.0
2016-Feb-07 00:33N 30°04' W 093°20'0 0.0
2016-Feb-06 23:33N 30°04' W 093°20'0 0.0
2016-Feb-06 22:33N 30°04' W 093°20'0 0.0
2016-Feb-06 21:33N 30°04' W 093°20'0 0.0
2016-Feb-06 20:34N 30°04' W 093°20'0 0.0
2016-Feb-06 19:34N 30°04' W 093°20'0 0.0
2016-Feb-06 18:33N 30°04' W 093°20'0 0.0
2016-Feb-06 17:34N 30°04' W 093°20'0 0.0
2016-Feb-06 16:33N 30°04' W 093°20'0 0.0
2016-Feb-06 15:34N 30°04' W 093°20'0 0.0
2016-Feb-06 14:34N 30°04' W 093°20'0 0.0
2016-Feb-06 13:33N 30°04' W 093°20'0 0.0
2016-Feb-06 12:34N 30°04' W 093°20'0 0.0
2016-Feb-06 11:34N 30°04' W 093°20'0 0.0
2016-Feb-06 10:33N 30°04' W 093°20'0 0.0
2016-Feb-06 09:33N 30°04' W 093°20'0 0.0
2016-Feb-06 08:33N 30°04' W 093°20'0 0.0
2016-Feb-06 07:33N 30°04' W 093°20'0 0.0
2016-Feb-06 06:33N 30°04' W 093°20'0 0.0
2016-Feb-06 05:33N 30°04' W 093°20'0 0.0
2016-Feb-06 04:33N 30°04' W 093°20'1 1.0
2016-Feb-06 03:33N 30°04' W 093°21'1 1.0
2016-Feb-06 02:33N 30°04' W 093°22'6 6.4
2016-Feb-06 01:33N 30°04' W 093°30'4 3.6
2016-Feb-06 00:34N 30°04' W 093°34'6 6.2
2016-Feb-05 23:33N 30°03' W 093°41'70 3.6
2016-Feb-05 04:16N 29°30' W 094°52'5 6.4
2016-Feb-05 03:33N 29°33' W 094°55'6 6.0
2016-Feb-05 02:33N 29°39' W 094°58'3 3.0
2016-Feb-05 01:30N 29°41' W 095°00'0 0.0
2016-Feb-05 00:29N 29°41' W 095°00'0 0.0
2016-Feb-04 23:33N 29°41' W 095°00'0 0.0
2016-Feb-04 22:33N 29°41' W 095°00'0 0.0
2016-Feb-04 21:33N 29°41' W 095°00'0 0.0
2016-Feb-04 20:33N 29°41' W 095°00'0 0.0
2016-Feb-04 19:32N 29°41' W 095°00'0 0.0
2016-Feb-04 18:33N 29°41' W 095°00'0 0.0
2016-Feb-04 17:34N 29°41' W 095°00'0 0.0
2016-Feb-04 16:34N 29°41' W 095°00'0 0.0
2016-Feb-04 15:33N 29°41' W 095°00'0 0.2
2016-Feb-04 14:33N 29°41' W 095°01'0 0.3
2016-Feb-04 13:33N 29°41' W 095°00'0 0.0
2016-Feb-04 12:33N 29°41' W 095°00'0 0.0
2016-Feb-04 11:33N 29°41' W 095°00'0 0.0
2016-Feb-04 10:33N 29°41' W 095°00'1 1.1
2016-Feb-04 09:34N 29°41' W 094°59'11 0.4
2016-Feb-03 03:32N 29°45' W 095°11'5 5.3
2016-Feb-03 02:33N 29°46' W 095°05'5 4.6
2016-Feb-03 01:33N 29°43' W 095°01'6 5.9
2016-Feb-03 00:34N 29°38' W 094°58'6 6.4
2016-Feb-02 23:33N 29°32' W 094°54'36 2.1
2016-Feb-02 06:25N 29°40' W 094°14'6 0.9
2016-Feb-01 23:18N 29°43' W 094°07'16 5.7
2016-Feb-01 20:29N 29°54' W 093°54'9 4.3
2016-Feb-01 18:26N 29°60' W 093°46'4 4.6
2016-Feb-01 17:33N 30°03' W 093°43'4 4.5
2016-Feb-01 16:33N 30°04' W 093°38'2 1.6
2016-Feb-01 15:33N 30°04' W 093°37'0 0.0
2016-Feb-01 14:33N 30°04' W 093°37'0 0.0
2016-Feb-01 13:33N 30°04' W 093°37'0 0.0
2016-Feb-01 12:33N 30°04' W 093°37'0 0.0
2016-Feb-01 11:34N 30°04' W 093°37'0 0.0
2016-Feb-01 10:34N 30°04' W 093°37'0 0.0
2016-Feb-01 09:33N 30°04' W 093°37'0 0.0
2016-Feb-01 08:33N 30°04' W 093°37'0 0.0
2016-Feb-01 07:33N 30°04' W 093°37'1 1.0
2016-Feb-01 06:33N 30°04' W 093°35'4 4.4
2016-Feb-01 05:33N 30°04' W 093°30'4 4.4
2016-Feb-01 04:33N 30°04' W 093°25'4 4.2
2016-Feb-01 03:33N 30°04' W 093°21'4 3.9
2016-Feb-01 02:33N 30°08' W 093°20'0 0.3
2016-Feb-01 01:33N 30°08' W 093°19'0 0.0
2016-Feb-01 00:33N 30°08' W 093°19'0 0.0
2016-Jan-31 23:34N 30°08' W 093°19'0 0.0
2016-Jan-31 22:33N 30°08' W 093°19'0 0.0
2016-Jan-31 21:33N 30°08' W 093°19'0 0.0
2016-Jan-31 20:33N 30°08' W 093°19'0 0.0
2016-Jan-31 19:33N 30°08' W 093°19'0 0.0
2016-Jan-31 18:33N 30°08' W 093°19'0 0.0
2016-Jan-31 17:33N 30°08' W 093°19'0 0.0
2016-Jan-31 16:34N 30°08' W 093°19'0 0.0
2016-Jan-31 15:33N 30°08' W 093°19'0 0.0
2016-Jan-31 14:33N 30°08' W 093°19'0 0.0
2016-Jan-31 13:33N 30°08' W 093°19'0 0.0
2016-Jan-31 12:34N 30°08' W 093°19'0 0.0
2016-Jan-31 11:34N 30°08' W 093°19'2 1.6
2016-Jan-31 10:33N 30°07' W 093°20'3 2.6
2016-Jan-31 09:33N 30°04' W 093°21'0 0.1
2016-Jan-31 08:34N 30°04' W 093°21'0 0.0
2016-Jan-31 07:33N 30°04' W 093°21'0 0.0
2016-Jan-31 06:33N 30°04' W 093°21'0 0.0
2016-Jan-31 05:33N 30°04' W 093°21'  
Track history (hours):
 
Tides and Currents Weather Stations Pressure Air Temp Water Temp Dewpoint Dewpoint Depression Visibility Wind Speed Wind Dir Waves Ship Positions

Jack Guidry

Owner: Enterprise Marine Services, LLC, San Antonio, TX. More information available from US FCC via Universal Licensing System and Coast Guard Vessel Documentation Center.

Last reported at 2016-Feb-10 05:33 UTC. Time now 2016-Feb-10 06:43 UTC.
Position N 29°56' W 093°02'.

Length 22 m; draft 2.5 m.

Type: Other ship. MMSI: 367003430.

Date/timePositionNaut miles runAvg speedWind from/ knotsBaromVisibWave heightAir tempDewpointWater temp
2016-Feb-10 05:33N 29°56' W 093°02'5 4.7
2016-Feb-10 04:33N 29°56' W 093°07'5 5.1
2016-Feb-10 03:34N 29°59' W 093°12'4 4.0
2016-Feb-10 02:33N 30°02' W 093°15'4 3.8
2016-Feb-10 01:34N 30°05' W 093°17'1 1.4
2016-Feb-10 00:34N 30°06' W 093°19'0 0.1
2016-Feb-09 23:33N 30°06' W 093°19'0 0.0
2016-Feb-09 22:33N 30°06' W 093°19'0 0.0
2016-Feb-09 21:33N 30°06' W 093°19'0 0.0
2016-Feb-09 20:33N 30°06' W 093°19'0 0.0
2016-Feb-09 19:33N 30°06' W 093°19'0 0.0
2016-Feb-09 18:34N 30°06' W 093°19'0 0.0
2016-Feb-09 17:34N 30°06' W 093°19'0 0.1
2016-Feb-09 16:33N 30°06' W 093°19'5 4.6
2016-Feb-09 15:33N 30°04' W 093°23'0 0.1
2016-Feb-09 14:33N 30°04' W 093°23'5 5.3
2016-Feb-09 13:33N 30°04' W 093°29'5 4.6
2016-Feb-09 12:33N 30°04' W 093°35'4 4.3
2016-Feb-09 11:33N 30°03' W 093°40'7 4.8
2016-Feb-09 10:05N 29°60' W 093°47'2 0.1
2016-Feb-08 15:05N 30°01' W 093°45'2 4.6
2016-Feb-08 14:33N 30°03' W 093°43'5 4.6
2016-Feb-08 13:33N 30°04' W 093°38'4 3.7
2016-Feb-08 12:34N 30°04' W 093°33'4 3.8
2016-Feb-08 11:33N 30°04' W 093°29'4 3.7
2016-Feb-08 10:33N 30°04' W 093°25'4 4.0
2016-Feb-08 09:33N 30°05' W 093°20'4 3.9
2016-Feb-08 08:34N 30°08' W 093°20'0 0.4
2016-Feb-08 07:33N 30°08' W 093°20'0 0.2
2016-Feb-08 06:34N 30°08' W 093°19'0 0.0
2016-Feb-08 05:34N 30°08' W 093°19'0 0.0
2016-Feb-08 04:33N 30°08' W 093°19'0 0.0
2016-Feb-08 03:33N 30°08' W 093°19'0 0.0
2016-Feb-08 02:33N 30°08' W 093°19'0 0.0
2016-Feb-08 01:33N 30°08' W 093°19'0 0.0
2016-Feb-08 00:34N 30°08' W 093°19'0 0.0
2016-Feb-07 23:33N 30°08' W 093°19'0 0.0
2016-Feb-07 22:33N 30°08' W 093°19'0 0.0
2016-Feb-07 21:33N 30°08' W 093°19'0 0.0
2016-Feb-07 20:33N 30°08' W 093°19'0 0.0
2016-Feb-07 19:33N 30°08' W 093°19'0 0.0
2016-Feb-07 18:34N 30°08' W 093°19'0 0.0
2016-Feb-07 17:33N 30°08' W 093°19'0 0.0
2016-Feb-07 16:34N 30°08' W 093°19'0 0.0
2016-Feb-07 15:33N 30°08' W 093°19'0 0.0
2016-Feb-07 14:34N 30°08' W 093°19'0 0.0
2016-Feb-07 13:33N 30°08' W 093°19'0 0.0
2016-Feb-07 12:33N 30°08' W 093°19'0 0.1
2016-Feb-07 11:34N 30°08' W 093°19'0 0.0
2016-Feb-07 10:33N 30°08' W 093°19'2 1.8
2016-Feb-07 09:33N 30°06' W 093°20'2 2.1
2016-Feb-07 08:33N 30°04' W 093°20'0 0.0
2016-Feb-07 07:34N 30°04' W 093°20'0 0.0
2016-Feb-07 06:34N 30°04' W 093°20'0 0.0
2016-Feb-07 05:33N 30°04' W 093°20'0 0.0
2016-Feb-07 04:33N 30°04' W 093°20'0 0.0
2016-Feb-07 03:34N 30°04' W 093°20'0 0.0
2016-Feb-07 02:07N 30°04' W 093°20'0 0.0
2016-Feb-07 01:34N 30°04' W 093°20'0 0.0
2016-Feb-07 00:33N 30°04' W 093°20'0 0.0
2016-Feb-06 23:33N 30°04' W 093°20'0 0.0
2016-Feb-06 22:33N 30°04' W 093°20'0 0.0
2016-Feb-06 21:33N 30°04' W 093°20'0 0.0
2016-Feb-06 20:34N 30°04' W 093°20'0 0.0
2016-Feb-06 19:34N 30°04' W 093°20'0 0.0
2016-Feb-06 18:33N 30°04' W 093°20'0 0.0
2016-Feb-06 17:34N 30°04' W 093°20'0 0.0
2016-Feb-06 16:33N 30°04' W 093°20'0 0.0
2016-Feb-06 15:34N 30°04' W 093°20'0 0.0
2016-Feb-06 14:34N 30°04' W 093°20'0 0.0
2016-Feb-06 13:33N 30°04' W 093°20'0 0.0
2016-Feb-06 12:34N 30°04' W 093°20'0 0.0
2016-Feb-06 11:34N 30°04' W 093°20'0 0.0
2016-Feb-06 10:33N 30°04' W 093°20'0 0.0
2016-Feb-06 09:33N 30°04' W 093°20'0 0.0
2016-Feb-06 08:33N 30°04' W 093°20'0 0.0
2016-Feb-06 07:33N 30°04' W 093°20'0 0.0
2016-Feb-06 06:33N 30°04' W 093°20'0 0.0
2016-Feb-06 05:33N 30°04' W 093°20'0 0.0
2016-Feb-06 04:33N 30°04' W 093°20'1 1.0
2016-Feb-06 03:33N 30°04' W 093°21'1 1.0
2016-Feb-06 02:33N 30°04' W 093°22'6 6.4
2016-Feb-06 01:33N 30°04' W 093°30'4 3.6
2016-Feb-06 00:34N 30°04' W 093°34'6 6.2
2016-Feb-05 23:33N 30°03' W 093°41'70 3.6
2016-Feb-05 04:16N 29°30' W 094°52'5 6.4
2016-Feb-05 03:33N 29°33' W 094°55'6 6.0
2016-Feb-05 02:33N 29°39' W 094°58'3 3.0
2016-Feb-05 01:30N 29°41' W 095°00'0 0.0
2016-Feb-05 00:29N 29°41' W 095°00'0 0.0
2016-Feb-04 23:33N 29°41' W 095°00'0 0.0
2016-Feb-04 22:33N 29°41' W 095°00'0 0.0
2016-Feb-04 21:33N 29°41' W 095°00'0 0.0
2016-Feb-04 20:33N 29°41' W 095°00'0 0.0
2016-Feb-04 19:32N 29°41' W 095°00'0 0.0
2016-Feb-04 18:33N 29°41' W 095°00'0 0.0
2016-Feb-04 17:34N 29°41' W 095°00'0 0.0
2016-Feb-04 16:34N 29°41' W 095°00'0 0.0
2016-Feb-04 15:33N 29°41' W 095°00'0 0.2
2016-Feb-04 14:33N 29°41' W 095°01'0 0.3
2016-Feb-04 13:33N 29°41' W 095°00'0 0.0
2016-Feb-04 12:33N 29°41' W 095°00'0 0.0
2016-Feb-04 11:33N 29°41' W 095°00'0 0.0
2016-Feb-04 10:33N 29°41' W 095°00'1 1.1
2016-Feb-04 09:34N 29°41' W 094°59'11 0.4
2016-Feb-03 03:32N 29°45' W 095°11'5 5.3
2016-Feb-03 02:33N 29°46' W 095°05'5 4.6
2016-Feb-03 01:33N 29°43' W 095°01'6 5.9
2016-Feb-03 00:34N 29°38' W 094°58'6 6.4
2016-Feb-02 23:33N 29°32' W 094°54'36 2.1
2016-Feb-02 06:25N 29°40' W 094°14'6 0.9
2016-Feb-01 23:18N 29°43' W 094°07'16 5.7
2016-Feb-01 20:29N 29°54' W 093°54'9 4.3
2016-Feb-01 18:26N 29°60' W 093°46'4 4.6
2016-Feb-01 17:33N 30°03' W 093°43'4 4.5
2016-Feb-01 16:33N 30°04' W 093°38'2 1.6
2016-Feb-01 15:33N 30°04' W 093°37'0 0.0
2016-Feb-01 14:33N 30°04' W 093°37'0 0.0
2016-Feb-01 13:33N 30°04' W 093°37'0 0.0
2016-Feb-01 12:33N 30°04' W 093°37'0 0.0
2016-Feb-01 11:34N 30°04' W 093°37'0 0.0
2016-Feb-01 10:34N 30°04' W 093°37'0 0.0
2016-Feb-01 09:33N 30°04' W 093°37'0 0.0
2016-Feb-01 08:33N 30°04' W 093°37'0 0.0
2016-Feb-01 07:33N 30°04' W 093°37'1 1.0
2016-Feb-01 06:33N 30°04' W 093°35'4 4.4
2016-Feb-01 05:33N 30°04' W 093°30'4 4.4
2016-Feb-01 04:33N 30°04' W 093°25'4 4.2
2016-Feb-01 03:33N 30°04' W 093°21'4 3.9
2016-Feb-01 02:33N 30°08' W 093°20'0 0.3
2016-Feb-01 01:33N 30°08' W 093°19'0 0.0
2016-Feb-01 00:33N 30°08' W 093°19'0 0.0
2016-Jan-31 23:34N 30°08' W 093°19'0 0.0
2016-Jan-31 22:33N 30°08' W 093°19'0 0.0
2016-Jan-31 21:33N 30°08' W 093°19'0 0.0
2016-Jan-31 20:33N 30°08' W 093°19'0 0.0
2016-Jan-31 19:33N 30°08' W 093°19'0 0.0
2016-Jan-31 18:33N 30°08' W 093°19'0 0.0
2016-Jan-31 17:33N 30°08' W 093°19'0 0.0
2016-Jan-31 16:34N 30°08' W 093°19'0 0.0
2016-Jan-31 15:33N 30°08' W 093°19'0 0.0
2016-Jan-31 14:33N 30°08' W 093°19'0 0.0
2016-Jan-31 13:33N 30°08' W 093°19'0 0.0
2016-Jan-31 12:34N 30°08' W 093°19'0 0.0
2016-Jan-31 11:34N 30°08' W 093°19'2 1.6
2016-Jan-31 10:33N 30°07' W 093°20'3 2.6
2016-Jan-31 09:33N 30°04' W 093°21'0 0.1
2016-Jan-31 08:34N 30°04' W 093°21'0 0.0
2016-Jan-31 07:33N 30°04' W 093°21'0 0.0
2016-Jan-31 06:33N 30°04' W 093°21'0 0.0
2016-Jan-31 05:33N 30°04' W 093°21'  

Dump ship's entire track history